createdAt,value
2023-12-29T00:01:38.262Z,8.17
2023-12-29T00:04:25.637Z,8.22
2023-12-29T00:07:14.762Z,8.12
2023-12-29T00:10:02.566Z,8.15
2023-12-29T00:12:52.042Z,8.09
2023-12-29T00:15:40.024Z,8.07
2023-12-29T00:18:27.879Z,8.00
2023-12-29T00:21:19.062Z,8.01
2023-12-29T00:24:08.416Z,7.95
2023-12-29T00:26:56.035Z,7.92
2023-12-29T00:29:43.907Z,7.88
2023-12-29T00:32:32.009Z,7.94
2023-12-29T00:35:21.197Z,7.94
2023-12-29T00:38:08.975Z,7.94
2023-12-29T00:41:01.186Z,7.90
2023-12-29T00:43:49.749Z,7.92
2023-12-29T00:46:38.587Z,7.91
2023-12-29T00:49:28.044Z,7.87
2023-12-29T00:52:16.107Z,7.92
2023-12-29T00:55:05.224Z,7.90
2023-12-29T00:57:53.023Z,7.88
2023-12-29T01:00:40.936Z,7.86
2023-12-29T01:03:29.054Z,7.79
2023-12-29T01:06:17.125Z,7.80
2023-12-29T01:09:05.144Z,7.83
2023-12-29T01:11:52.477Z,7.82
2023-12-29T01:14:40.329Z,7.70
2023-12-29T01:17:29.851Z,7.79
2023-12-29T01:20:17.307Z,7.83
2023-12-29T01:23:06.682Z,7.78
2023-12-29T01:25:54.631Z,7.79
2023-12-29T01:28:42.672Z,7.68
2023-12-29T01:31:33.846Z,7.72
2023-12-29T01:34:22.040Z,7.71
2023-12-29T01:37:09.636Z,7.69
2023-12-29T01:39:58.018Z,7.73
2023-12-29T01:42:45.809Z,7.66
2023-12-29T01:45:40.394Z,7.66
2023-12-29T01:48:33.399Z,7.71
2023-12-29T01:51:25.007Z,7.68
2023-12-29T01:54:13.882Z,7.61
2023-12-29T01:57:03.261Z,7.68
2023-12-29T01:59:52.753Z,7.67
2023-12-29T02:02:41.316Z,7.64
2023-12-29T02:05:29.410Z,7.63
2023-12-29T02:08:17.365Z,7.58
2023-12-29T02:11:06.774Z,7.54
2023-12-29T02:13:55.156Z,7.50
2023-12-29T02:16:54.612Z,7.43
2023-12-29T02:19:46.178Z,7.40
2023-12-29T02:22:34.490Z,7.35
2023-12-29T02:25:22.493Z,7.35
2023-12-29T02:28:24.379Z,7.26
2023-12-29T02:31:22.285Z,7.18
2023-12-29T02:34:12.963Z,7.15
2023-12-29T02:37:07.875Z,7.13
2023-12-29T02:39:58.729Z,7.17
2023-12-29T02:42:54.607Z,7.11
2023-12-29T02:45:43.074Z,7.13
2023-12-29T02:48:36.002Z,7.04
2023-12-29T02:51:26.829Z,6.97
2023-12-29T02:54:14.878Z,6.90
2023-12-29T02:57:02.222Z,7.05
2023-12-29T02:59:50.622Z,7.05
2023-12-29T03:02:38.397Z,7.07
2023-12-29T03:05:26.294Z,7.06
2023-12-29T03:08:13.908Z,7.09
2023-12-29T03:11:01.997Z,7.11
2023-12-29T03:13:49.963Z,7.09
2023-12-29T03:16:38.316Z,7.13
2023-12-29T03:19:26.881Z,7.14
2023-12-29T03:22:15.695Z,7.17
2023-12-29T03:25:03.102Z,7.20
2023-12-29T03:27:51.065Z,7.22
2023-12-29T03:30:39.780Z,7.21
2023-12-29T03:33:31.252Z,7.22
2023-12-29T03:36:23.180Z,7.26
2023-12-29T03:39:11.003Z,7.27
2023-12-29T03:41:58.312Z,7.27
2023-12-29T03:44:46.122Z,7.27
2023-12-29T03:47:33.911Z,7.27
2023-12-29T03:50:21.807Z,7.25
2023-12-29T03:53:12.710Z,7.17
2023-12-29T03:56:00.371Z,7.19
2023-12-29T03:58:51.334Z,7.06
2023-12-29T04:01:37.959Z,7.08
2023-12-29T04:04:24.999Z,7.06
2023-12-29T04:07:11.548Z,7.02
2023-12-29T04:10:02.542Z,7.00
2023-12-29T04:12:49.007Z,7.03
2023-12-29T04:15:36.502Z,7.03
2023-12-29T04:18:25.363Z,6.96
2023-12-29T04:21:18.366Z,6.90
2023-12-29T04:24:06.035Z,6.98
2023-12-29T04:26:54.896Z,6.89
2023-12-29T04:29:42.438Z,6.91
2023-12-29T04:32:30.364Z,6.92
2023-12-29T04:35:19.040Z,6.90
2023-12-29T04:38:08.263Z,6.85
2023-12-29T04:40:55.643Z,6.86
2023-12-29T04:43:43.467Z,6.81
2023-12-29T04:46:30.715Z,6.78
2023-12-29T04:49:18.478Z,6.81
2023-12-29T04:52:06.665Z,6.82
2023-12-29T04:54:55.009Z,6.80
2023-12-29T04:57:44.825Z,6.79
2023-12-29T05:00:32.537Z,6.83
2023-12-29T05:03:21.043Z,6.78
2023-12-29T05:06:08.813Z,6.80
2023-12-29T05:08:56.914Z,6.80
2023-12-29T05:11:46.000Z,6.79
2023-12-29T05:14:34.356Z,6.74
2023-12-29T05:17:21.949Z,6.78
2023-12-29T05:20:10.353Z,6.76
2023-12-29T05:22:58.553Z,6.76
2023-12-29T05:25:48.057Z,6.76
2023-12-29T05:28:35.180Z,6.78
2023-12-29T05:31:22.620Z,6.75
2023-12-29T05:34:09.974Z,6.71
2023-12-29T05:36:59.650Z,6.67
2023-12-29T05:39:47.958Z,6.66
2023-12-29T05:42:35.710Z,6.69
2023-12-29T05:45:23.473Z,6.68
2023-12-29T05:48:12.237Z,6.68
2023-12-29T05:50:59.784Z,6.68
2023-12-29T05:53:47.350Z,6.65
2023-12-29T05:56:34.876Z,6.67
2023-12-29T05:59:22.274Z,6.63
2023-12-29T06:02:08.790Z,6.75
2023-12-29T06:04:54.813Z,6.71
2023-12-29T06:07:41.106Z,6.70
2023-12-29T06:10:27.323Z,6.74
2023-12-29T06:13:13.619Z,6.75
2023-12-29T06:15:59.659Z,6.75
2023-12-29T06:18:45.948Z,6.75
2023-12-29T06:21:32.236Z,6.68
2023-12-29T06:24:18.491Z,6.76
2023-12-29T06:27:05.016Z,6.77
2023-12-29T06:29:51.491Z,6.71
2023-12-29T06:32:37.985Z,6.80
2023-12-29T06:35:24.077Z,6.77
2023-12-29T06:38:11.439Z,6.79
2023-12-29T06:40:57.528Z,6.83
2023-12-29T06:43:43.569Z,6.86
2023-12-29T06:46:29.563Z,6.80
2023-12-29T06:49:15.825Z,6.86
2023-12-29T06:52:02.039Z,6.85
2023-12-29T06:54:48.244Z,6.89
2023-12-29T06:57:34.178Z,6.91
2023-12-29T07:00:20.067Z,6.94
2023-12-29T07:03:06.514Z,6.89
2023-12-29T07:05:52.297Z,6.95
2023-12-29T07:08:38.353Z,6.96
2023-12-29T07:11:24.525Z,6.96
2023-12-29T07:14:10.321Z,6.93
2023-12-29T07:16:56.235Z,6.93
2023-12-29T07:19:42.277Z,6.83
2023-12-29T07:22:28.143Z,6.91
2023-12-29T07:25:15.272Z,6.90
2023-12-29T07:28:01.633Z,6.89
2023-12-29T07:30:48.987Z,6.89
2023-12-29T07:33:35.397Z,6.85
2023-12-29T07:36:21.372Z,6.90
2023-12-29T07:39:07.701Z,6.93
2023-12-29T07:41:54.953Z,6.96
2023-12-29T07:44:43.031Z,6.97
2023-12-29T07:47:28.986Z,7.06
2023-12-29T07:50:14.892Z,7.05
2023-12-29T07:53:04.019Z,7.03
2023-12-29T07:55:53.565Z,7.03
2023-12-29T07:58:41.030Z,7.17
2023-12-29T08:01:29.536Z,7.20
2023-12-29T08:04:16.047Z,7.16
2023-12-29T08:07:02.082Z,7.30
2023-12-29T08:09:48.165Z,7.31
2023-12-29T08:12:37.475Z,7.38
2023-12-29T08:15:23.584Z,7.41
2023-12-29T08:18:09.646Z,7.44
2023-12-29T08:20:55.837Z,7.51
2023-12-29T08:23:41.583Z,7.58
2023-12-29T08:26:27.419Z,7.64
2023-12-29T08:29:16.320Z,7.62
2023-12-29T08:32:03.123Z,7.75
2023-12-29T08:34:49.163Z,7.76
2023-12-29T08:37:35.761Z,7.83
2023-12-29T08:40:21.718Z,7.88
2023-12-29T08:43:07.755Z,7.85
2023-12-29T08:45:53.989Z,8.01
2023-12-29T08:48:39.925Z,8.04
2023-12-29T08:51:25.991Z,8.11
2023-12-29T08:54:11.783Z,8.14
2023-12-29T08:56:57.746Z,8.20
2023-12-29T08:59:43.873Z,8.19
2023-12-29T09:02:30.097Z,8.36
2023-12-29T09:05:16.302Z,8.45
2023-12-29T09:08:02.833Z,8.55
2023-12-29T09:10:48.838Z,8.65
2023-12-29T09:13:34.901Z,8.75
2023-12-29T09:16:21.187Z,8.81
2023-12-29T09:19:18.097Z,8.87
2023-12-29T09:22:12.941Z,8.97
2023-12-29T09:24:58.955Z,9.03
2023-12-29T09:27:45.842Z,9.08
2023-12-29T09:30:31.928Z,9.15
2023-12-29T09:33:18.188Z,9.22
2023-12-29T09:36:05.303Z,9.25
2023-12-29T09:38:51.276Z,9.32
2023-12-29T09:41:41.159Z,9.30
2023-12-29T09:44:29.332Z,9.38
2023-12-29T09:47:17.709Z,9.39
2023-12-29T09:50:05.316Z,9.63
2023-12-29T09:52:51.544Z,9.71
2023-12-29T09:55:38.872Z,9.84
2023-12-29T09:58:26.660Z,9.98
2023-12-29T10:01:13.157Z,10.14
2023-12-29T10:03:59.458Z,10.28
2023-12-29T10:06:50.075Z,10.43
2023-12-29T10:09:38.800Z,10.50
2023-12-29T10:12:25.685Z,10.64
2023-12-29T10:15:39.452Z,10.67
2023-12-29T10:18:29.487Z,10.87
2023-12-29T10:21:40.752Z,10.90
2023-12-29T10:24:27.215Z,11.08
2023-12-29T10:27:14.285Z,11.15
2023-12-29T10:30:00.306Z,11.22
2023-12-29T10:32:51.899Z,11.35
2023-12-29T10:35:44.602Z,11.49
2023-12-29T10:38:33.411Z,11.62
2023-12-29T10:41:21.075Z,11.75
2023-12-29T10:44:10.266Z,11.78
2023-12-29T10:46:56.318Z,11.98
2023-12-29T10:49:42.738Z,12.05
2023-12-29T10:52:29.313Z,12.20
2023-12-29T10:55:16.497Z,12.24
2023-12-29T10:58:02.473Z,12.30
2023-12-29T11:00:48.780Z,12.57
2023-12-29T11:03:34.850Z,12.70
2023-12-29T11:06:20.732Z,12.79
2023-12-29T11:09:06.887Z,12.93
2023-12-29T11:11:53.398Z,13.11
2023-12-29T11:14:41.480Z,13.23
2023-12-29T11:17:27.878Z,13.40
2023-12-29T11:20:16.036Z,13.51
2023-12-29T11:23:02.869Z,13.66
2023-12-29T11:25:50.134Z,13.81
2023-12-29T11:28:36.635Z,13.93
2023-12-29T11:31:23.277Z,14.13
2023-12-29T11:34:17.763Z,14.32
2023-12-29T11:37:34.179Z,14.41
2023-12-29T11:40:23.097Z,14.62
2023-12-29T11:43:17.835Z,14.82
2023-12-29T11:46:04.103Z,14.92
2023-12-29T11:48:59.928Z,15.11
2023-12-29T11:51:50.519Z,15.20
2023-12-29T11:54:41.531Z,15.42
2023-12-29T11:57:34.797Z,15.58
2023-12-29T12:00:20.963Z,15.75
2023-12-29T12:03:27.261Z,15.85
2023-12-29T12:06:13.545Z,15.96
2023-12-29T12:09:19.644Z,15.96
2023-12-29T12:12:07.118Z,16.12
2023-12-29T12:14:54.547Z,16.24
2023-12-29T12:17:40.381Z,16.28
2023-12-29T12:20:27.358Z,16.35
2023-12-29T12:23:20.295Z,16.39
2023-12-29T12:26:06.959Z,16.32
2023-12-29T12:28:56.001Z,16.56
2023-12-29T12:31:57.866Z,16.58
2023-12-29T12:34:44.032Z,16.68
2023-12-29T12:37:30.882Z,16.69
2023-12-29T12:40:28.537Z,16.65
2023-12-29T12:43:16.930Z,16.72
2023-12-29T12:46:11.170Z,16.73
2023-12-29T12:48:57.295Z,16.73
2023-12-29T12:51:44.038Z,16.67
2023-12-29T12:54:30.138Z,16.56
2023-12-29T12:57:20.412Z,16.46
2023-12-29T13:00:07.414Z,16.28
2023-12-29T13:02:53.727Z,16.20
2023-12-29T13:05:40.301Z,16.08
2023-12-29T13:08:34.344Z,15.91
2023-12-29T13:11:26.762Z,15.80
2023-12-29T13:14:23.969Z,15.60
2023-12-29T13:17:13.982Z,15.56
2023-12-29T13:20:00.569Z,15.42
2023-12-29T13:22:52.663Z,15.34
2023-12-29T13:25:40.829Z,15.25
2023-12-29T13:28:27.719Z,15.26
2023-12-29T13:31:14.793Z,15.19
2023-12-29T13:34:05.724Z,15.22
2023-12-29T13:36:56.390Z,15.25
2023-12-29T13:40:11.390Z,15.15
2023-12-29T13:43:00.460Z,15.34
2023-12-29T13:45:47.265Z,15.43
2023-12-29T13:48:33.757Z,15.56
2023-12-29T13:51:24.824Z,15.60
2023-12-29T13:54:11.110Z,15.69
2023-12-29T13:56:57.301Z,15.72
2023-12-29T13:59:44.482Z,15.72
2023-12-29T14:02:33.699Z,15.71
2023-12-29T14:05:45.547Z,15.65
2023-12-29T14:08:35.702Z,15.64
2023-12-29T14:11:22.034Z,15.59
2023-12-29T14:14:08.182Z,15.51
2023-12-29T14:16:55.282Z,15.40
2023-12-29T14:19:42.707Z,15.31
2023-12-29T14:22:28.924Z,15.16
2023-12-29T14:25:14.877Z,15.10
2023-12-29T14:28:02.278Z,15.00
2023-12-29T14:30:48.295Z,14.90
2023-12-29T14:33:34.431Z,14.80
2023-12-29T14:36:20.693Z,14.65
2023-12-29T14:39:07.398Z,14.57
2023-12-29T14:41:54.394Z,14.51
2023-12-29T14:44:40.680Z,14.42
2023-12-29T14:47:26.524Z,14.27
2023-12-29T14:50:13.025Z,14.16
2023-12-29T14:53:00.396Z,14.16
2023-12-29T14:55:46.618Z,14.06
2023-12-29T14:58:33.608Z,14.00
2023-12-29T15:01:20.014Z,13.94
2023-12-29T15:04:07.462Z,13.87
2023-12-29T15:06:54.190Z,13.75
2023-12-29T15:09:41.361Z,13.63
2023-12-29T15:12:27.251Z,13.59
2023-12-29T15:15:14.486Z,13.51
2023-12-29T15:18:01.734Z,13.45
2023-12-29T15:21:03.108Z,13.32
2023-12-29T15:23:49.328Z,13.26
2023-12-29T15:26:35.432Z,13.26
2023-12-29T15:29:21.665Z,13.17
2023-12-29T15:32:08.187Z,13.11
2023-12-29T15:34:54.290Z,12.96
2023-12-29T15:37:40.197Z,12.99
2023-12-29T15:40:26.579Z,12.87
2023-12-29T15:43:12.855Z,12.85
2023-12-29T15:45:58.820Z,12.80
2023-12-29T15:48:47.515Z,12.76
2023-12-29T15:51:33.872Z,12.70
2023-12-29T15:54:20.010Z,12.64
2023-12-29T15:57:09.152Z,12.56
2023-12-29T15:59:55.847Z,12.49
2023-12-29T16:02:41.874Z,12.47
2023-12-29T16:05:28.050Z,12.40
2023-12-29T16:08:14.259Z,12.36
2023-12-29T16:11:00.343Z,12.27
2023-12-29T16:13:46.577Z,12.13
2023-12-29T16:16:33.197Z,12.20
2023-12-29T16:19:19.285Z,12.16
2023-12-29T16:22:05.301Z,12.06
2023-12-29T16:24:52.609Z,12.00
2023-12-29T16:27:38.763Z,11.98
2023-12-29T16:30:25.150Z,11.91
2023-12-29T16:33:11.946Z,11.94
2023-12-29T16:35:58.167Z,11.83
2023-12-29T16:38:48.945Z,11.80
2023-12-29T16:41:35.630Z,11.75
2023-12-29T16:44:21.852Z,11.78
2023-12-29T16:47:07.895Z,11.70
2023-12-29T16:49:54.188Z,11.68
2023-12-29T16:52:40.441Z,11.62
2023-12-29T16:55:26.667Z,11.62
2023-12-29T16:58:12.844Z,11.56
2023-12-29T17:00:58.888Z,11.49
2023-12-29T17:03:47.308Z,11.44
2023-12-29T17:06:33.532Z,11.41
2023-12-29T17:09:19.635Z,11.33
2023-12-29T17:12:05.973Z,11.29
2023-12-29T17:14:52.116Z,11.25
2023-12-29T17:17:37.989Z,11.26
2023-12-29T17:20:24.218Z,11.11
2023-12-29T17:23:10.482Z,11.13
2023-12-29T17:25:59.903Z,11.09
2023-12-29T17:28:46.492Z,11.02
2023-12-29T17:31:32.665Z,10.98
2023-12-29T17:34:19.021Z,10.95
2023-12-29T17:37:05.344Z,10.93
2023-12-29T17:39:51.126Z,10.93
2023-12-29T17:42:37.222Z,10.90
2023-12-29T17:45:23.332Z,10.88
2023-12-29T17:48:09.404Z,10.80
2023-12-29T17:50:55.454Z,10.83
2023-12-29T17:53:45.131Z,10.83
2023-12-29T17:56:31.838Z,10.80
2023-12-29T17:59:20.858Z,10.79
2023-12-29T18:02:07.157Z,10.75
2023-12-29T18:04:57.591Z,10.71
2023-12-29T18:07:47.872Z,10.72
2023-12-29T18:10:34.965Z,10.69
2023-12-29T18:13:22.025Z,10.71
2023-12-29T18:16:10.977Z,10.69
2023-12-29T18:18:57.097Z,10.70
2023-12-29T18:21:43.061Z,10.65
2023-12-29T18:24:29.796Z,10.71
2023-12-29T18:27:16.665Z,10.69
2023-12-29T18:30:04.324Z,10.72
2023-12-29T18:32:51.344Z,10.66
2023-12-29T18:35:39.898Z,10.67
2023-12-29T18:38:26.012Z,10.65
2023-12-29T18:41:11.974Z,10.57
2023-12-29T18:43:58.260Z,10.60
2023-12-29T18:46:44.100Z,10.52
2023-12-29T18:49:31.344Z,10.54
2023-12-29T18:52:18.641Z,10.51
2023-12-29T18:55:06.209Z,10.49
2023-12-29T18:57:52.377Z,10.47
2023-12-29T19:00:38.478Z,10.38
2023-12-29T19:03:25.466Z,10.42
2023-12-29T19:06:11.244Z,10.41
2023-12-29T19:08:57.349Z,10.37
2023-12-29T19:11:44.943Z,10.32
2023-12-29T19:14:31.558Z,10.34
2023-12-29T19:17:17.485Z,10.31
2023-12-29T19:20:05.333Z,10.29
2023-12-29T19:22:51.189Z,10.29
2023-12-29T19:25:37.342Z,10.25
2023-12-29T19:28:23.672Z,10.15
2023-12-29T19:31:10.381Z,10.20
2023-12-29T19:33:56.762Z,10.16
2023-12-29T19:36:42.699Z,10.06
2023-12-29T19:39:28.901Z,10.11
2023-12-29T19:42:15.336Z,10.08
2023-12-29T19:45:09.316Z,10.06
2023-12-29T19:48:00.074Z,10.00
2023-12-29T19:50:46.748Z,9.98
2023-12-29T19:53:32.592Z,9.92
2023-12-29T19:56:27.269Z,9.85
2023-12-29T19:59:13.776Z,9.79
2023-12-29T20:01:59.860Z,9.73
2023-12-29T20:04:46.184Z,9.65
2023-12-29T20:07:32.707Z,9.55
2023-12-29T20:10:19.507Z,9.63
2023-12-29T20:13:06.233Z,9.67
2023-12-29T20:16:10.960Z,9.48
2023-12-29T20:18:57.373Z,9.69
2023-12-29T20:21:44.246Z,9.68
2023-12-29T20:24:30.254Z,9.73
2023-12-29T20:27:16.600Z,9.73
2023-12-29T20:30:39.063Z,9.61
2023-12-29T20:33:28.071Z,9.69
2023-12-29T20:36:14.188Z,9.66
2023-12-29T20:39:30.391Z,9.51
2023-12-29T20:42:16.315Z,9.50
2023-12-29T20:45:02.359Z,9.44
2023-12-29T20:49:31.472Z,9.32
2023-12-29T20:57:40.034Z,9.16
2023-12-29T21:01:43.884Z,9.05
2023-12-29T21:04:29.818Z,9.06
2023-12-29T21:07:15.825Z,9.10
2023-12-29T21:10:37.919Z,8.95
2023-12-29T21:13:25.373Z,9.03
2023-12-29T21:16:16.809Z,8.98
2023-12-29T21:19:22.254Z,8.93
2023-12-29T21:22:08.304Z,9.03
2023-12-29T21:24:54.589Z,9.00
2023-12-29T21:28:47.821Z,8.82
2023-12-29T21:31:33.952Z,8.82
2023-12-29T21:34:20.701Z,8.85
2023-12-29T21:38:49.356Z,8.59
2023-12-29T21:43:19.392Z,8.50
2023-12-29T21:47:43.595Z,8.48
2023-12-29T21:57:00.332Z,8.41
2023-12-29T21:59:46.200Z,8.55
2023-12-29T22:02:32.025Z,8.59
2023-12-29T22:06:34.958Z,8.50
2023-12-29T22:09:20.916Z,8.61
2023-12-29T22:12:09.550Z,8.56
2023-12-29T22:14:55.691Z,8.62
2023-12-29T22:18:04.900Z,8.54
2023-12-29T22:20:52.020Z,8.62
2023-12-29T22:23:39.632Z,8.59
2023-12-29T22:26:25.660Z,8.60
2023-12-29T22:29:21.211Z,8.53
2023-12-29T22:32:07.463Z,8.58
2023-12-29T22:34:54.879Z,8.55
2023-12-29T22:37:44.970Z,8.47
2023-12-29T22:40:34.447Z,8.42
2023-12-29T22:43:22.015Z,8.41
2023-12-29T22:55:24.153Z,8.20
2023-12-29T22:58:10.522Z,8.23
2023-12-29T23:00:57.366Z,8.12
2023-12-29T23:03:44.159Z,8.23
2023-12-29T23:06:30.168Z,8.17
2023-12-29T23:09:17.151Z,8.17
2023-12-29T23:12:05.818Z,8.18
2023-12-29T23:14:52.529Z,8.13
2023-12-29T23:17:38.551Z,8.13
2023-12-29T23:20:24.588Z,8.10
2023-12-29T23:23:12.730Z,8.05
2023-12-29T23:25:58.716Z,8.05
2023-12-29T23:28:45.159Z,8.03
2023-12-29T23:31:31.724Z,7.98
2023-12-29T23:34:19.517Z,7.99
2023-12-29T23:37:05.622Z,7.97
2023-12-29T23:39:59.058Z,7.98
2023-12-29T23:42:45.812Z,7.81
2023-12-29T23:45:34.594Z,8.00
2023-12-29T23:48:20.984Z,7.96
2023-12-29T23:51:07.139Z,7.94
2023-12-29T23:53:54.386Z,7.92
2023-12-29T23:56:41.028Z,7.88
2023-12-29T23:59:26.741Z,7.85
